Time;durP1;ratioP1;P1;durP2;ratioP2;P2;SDS_P1;SDS_P2;PMS_P1;PMS_P2;Temp;Humidity;BMP_temperature;BMP_pressure;BME280_temperature;BME280_humidity;BME280_pressure;Samples;Min_cycle;Max_cycle;Signal;HPM_P1;HPM_P2
2023/08/21 00:01:01;;;;;;;3.78;1.55;;;;;;;17.97;91.91;102376.28;5006930;28;20240;-87
2023/08/21 00:03:26;;;;;;;2.97;1.60;;;;;;;17.95;91.83;102368.41;5000631;28;20357;-87
2023/08/21 00:05:52;;;;;;;3.75;1.45;;;;;;;17.94;91.76;102369.34;5009547;28;20053;-87
2023/08/21 00:08:17;;;;;;;2.83;1.10;;;;;;;17.94;91.78;102373.78;4991073;28;20163;-86
2023/08/21 00:10:43;;;;;;;2.72;1.75;;;;;;;17.94;92.04;102373.78;5000683;28;20042;-87
2023/08/21 00:13:08;;;;;;;2.50;1.40;;;;;;;17.91;92.16;102372.13;4976950;28;20062;-87
2023/08/21 00:15:34;;;;;;;4.15;1.38;;;;;;;17.90;92.35;102377.50;4996929;28;20084;-87
2023/08/21 00:18:00;;;;;;;2.63;1.17;;;;;;;17.89;92.76;102375.81;4997706;28;20105;-87
2023/08/21 00:20:26;;;;;;;1.60;1.25;;;;;;;17.87;92.63;102370.56;4994310;28;20235;-87
2023/08/21 00:22:51;;;;;;;2.30;1.38;;;;;;;17.87;92.99;102367.06;5001167;28;20042;-87
2023/08/21 00:25:16;;;;;;;1.98;1.20;;;;;;;17.85;92.98;102375.09;4973187;28;20037;-87
2023/08/21 00:27:42;;;;;;;1.67;1.23;;;;;;;17.86;93.27;102375.94;5004797;28;20077;-87
2023/08/21 00:30:08;;;;;;;3.22;1.30;;;;;;;17.84;93.65;102373.31;4971131;28;20030;-87
2023/08/21 00:32:33;;;;;;;2.30;1.20;;;;;;;17.84;93.19;102360.06;4982540;28;20097;-87
2023/08/21 00:34:59;;;;;;;2.58;1.42;;;;;;;17.84;93.44;102363.59;4968776;28;20034;-87
2023/08/21 00:37:24;;;;;;;1.23;1.13;;;;;;;17.84;93.23;102357.41;4994484;28;20037;-87
2023/08/21 00:39:50;;;;;;;5.75;1.20;;;;;;;17.83;93.43;102361.03;4980936;28;20021;-87
2023/08/21 00:42:15;;;;;;;2.10;1.50;;;;;;;17.82;93.50;102365.44;5000333;28;20044;-87
2023/08/21 00:44:41;;;;;;;1.55;1.10;;;;;;;17.81;93.32;102358.44;4966643;28;20034;-87
2023/08/21 00:47:06;;;;;;;1.85;1.15;;;;;;;17.80;93.49;102356.69;5000647;28;20305;-87
2023/08/21 00:49:32;;;;;;;3.88;1.30;;;;;;;17.80;93.47;102358.50;4984554;28;20399;-87
2023/08/21 00:52:01;;;;;;;2.10;1.30;;;;;;;17.78;93.59;102349.78;5018857;28;20383;-87
2023/08/21 00:54:27;;;;;;;1.70;1.23;;;;;;;17.77;93.60;102356.00;5002175;28;20371;-87
2023/08/21 00:56:52;;;;;;;3.22;1.40;;;;;;;17.75;94.06;102352.56;5018231;28;20037;-87
2023/08/21 00:59:20;;;;;;;4.00;1.48;;;;;;;17.74;94.19;102346.41;4972781;28;20038;-86
2023/08/21 01:01:45;;;;;;;4.00;1.85;;;;;;;17.72;94.21;102356.22;4997190;28;20034;-86
2023/08/21 01:04:11;;;;;;;3.10;1.40;;;;;;;17.71;94.21;102357.13;4977267;28;20054;-87
2023/08/21 01:06:36;;;;;;;2.25;1.63;;;;;;;17.70;94.13;102350.13;4983241;28;20046;-87
2023/08/21 01:09:12;;;;;;;2.70;1.30;;;;;;;17.69;94.26;102353.69;4979462;28;20389;-87
2023/08/21 01:11:45;;;;;;;2.03;1.25;;;;;;;17.67;94.55;102352.91;4993889;28;20183;-87
2023/08/21 01:14:22;;;;;;;2.65;1.30;;;;;;;17.64;94.47;102356.59;4988964;28;20117;-87
2023/08/21 01:16:52;;;;;;;2.20;1.20;;;;;;;17.64;94.49;102363.66;4998200;28;20068;-87
2023/08/21 01:19:42;;;;;;;3.28;1.10;;;;;;;17.63;94.25;102362.81;4972553;28;20161;-87
2023/08/21 01:22:08;;;;;;;3.17;1.30;;;;;;;17.61;94.30;102359.38;4973983;28;20035;-86
2023/08/21 01:24:34;;;;;;;2.00;1.23;;;;;;;17.60;94.46;102359.44;4968226;28;20354;-87
2023/08/21 01:26:59;;;;;;;2.65;1.27;;;;;;;17.59;94.45;102368.28;4967051;28;20035;-86
2023/08/21 01:29:26;;;;;;;2.65;1.50;;;;;;;17.57;94.67;102365.75;4971354;28;20030;-87
2023/08/21 01:32:29;;;;;;;2.40;1.30;;;;;;;17.55;94.81;102364.94;4997555;28;20037;-87
2023/08/21 01:34:56;;;;;;;4.40;1.83;;;;;;;17.55;94.68;102374.66;4985033;28;20049;-87
2023/08/21 01:37:22;;;;;;;3.17;1.13;;;;;;;17.54;94.73;102375.63;4999383;28;20034;-87
2023/08/21 01:39:47;;;;;;;2.78;1.27;;;;;;;17.54;94.78;102372.97;5005065;28;20034;-87
2023/08/21 01:42:13;;;;;;;2.85;1.20;;;;;;;17.52;94.92;102373.03;5016978;28;20352;-87
2023/08/21 01:44:38;;;;;;;4.05;1.30;;;;;;;17.52;95.12;102372.16;5005891;28;20042;-87
2023/08/21 01:47:04;;;;;;;2.78;1.20;;;;;;;17.51;94.76;102373.94;5015362;28;20046;-87
2023/08/21 01:49:29;;;;;;;5.93;1.48;;;;;;;17.51;94.87;102375.75;4989124;28;20097;-87
2023/08/21 01:51:54;;;;;;;2.63;1.38;;;;;;;17.49;94.87;102374.97;5013510;28;20029;-87
2023/08/21 01:54:20;;;;;;;3.05;1.38;;;;;;;17.48;94.90;102370.59;5004089;28;20037;-87
2023/08/21 01:56:45;;;;;;;2.78;1.23;;;;;;;17.48;94.95;102373.22;5012359;28;20253;-87
2023/08/21 01:59:11;;;;;;;3.95;1.30;;;;;;;17.47;94.88;102377.69;4993367;28;20070;-87
2023/08/21 02:01:36;;;;;;;2.72;1.40;;;;;;;17.46;95.02;102370.66;5010281;28;20048;-87
2023/08/21 02:04:01;;;;;;;4.40;1.20;;;;;;;17.45;94.99;102363.66;5012880;28;20108;-87
2023/08/21 02:06:27;;;;;;;1.42;1.20;;;;;;;17.45;95.12;102371.59;4995954;28;20113;-87
2023/08/21 02:08:52;;;;;;;2.83;1.50;;;;;;;17.43;95.08;102370.81;5013817;28;20041;-87
2023/08/21 02:11:19;;;;;;;1.65;1.10;;;;;;;17.42;94.98;102363.78;4980188;28;20411;-87
2023/08/21 02:13:44;;;;;;;3.85;1.40;;;;;;;17.41;95.04;102368.22;4993038;28;20054;-87
2023/08/21 02:16:10;;;;;;;3.35;1.27;;;;;;;17.40;95.10;102366.50;4998959;28;20097;-87
2023/08/21 02:18:35;;;;;;;1.95;1.35;;;;;;;17.38;95.42;102368.34;4996837;28;20415;-86
2023/08/21 02:21:01;;;;;;;5.13;1.90;;;;;;;17.36;95.17;102375.50;4993754;28;20076;-87
2023/08/21 02:23:26;;;;;;;2.63;1.65;;;;;;;17.35;95.45;102364.97;5015740;28;20026;-87
2023/08/21 02:25:52;;;;;;;4.13;1.00;;;;;;;17.34;95.49;102364.13;5006109;28;20068;-87
2023/08/21 02:28:17;;;;;;;3.67;1.40;;;;;;;17.32;95.65;102371.28;5015935;28;20387;-87
2023/08/21 02:30:43;;;;;;;2.90;1.20;;;;;;;17.30;95.53;102362.56;4988741;28;20127;-87
2023/08/21 02:33:08;;;;;;;3.35;1.20;;;;;;;17.29;95.84;102365.28;5016633;28;20065;-87
2023/08/21 02:35:34;;;;;;;2.63;1.10;;;;;;;17.28;95.85;102364.38;4989222;28;20025;-87
2023/08/21 02:37:59;;;;;;;2.92;1.40;;;;;;;17.26;96.11;102363.59;4998689;28;20284;-87
2023/08/21 02:40:25;;;;;;;2.83;1.38;;;;;;;17.26;96.22;102363.59;4974314;28;20050;-87
2023/08/21 02:42:50;;;;;;;2.35;1.27;;;;;;;17.24;96.13;102362.81;4998552;28;20320;-87
2023/08/21 02:45:15;;;;;;;3.60;1.58;;;;;;;17.23;96.23;102363.75;5007400;28;20049;-87
2023/08/21 02:47:42;;;;;;;3.67;1.35;;;;;;;17.22;96.25;102359.38;5015766;28;20379;-87
2023/08/21 02:50:09;;;;;;;2.30;1.30;;;;;;;17.20;96.29;102356.78;4991769;28;20041;-87
2023/08/21 02:52:36;;;;;;;2.38;1.35;;;;;;;17.20;96.62;102363.88;5014498;28;20530;-87
2023/08/21 02:55:03;;;;;;;2.58;1.52;;;;;;;17.19;96.64;102359.50;4992886;28;20038;-86
2023/08/21 02:57:28;;;;;;;1.30;1.13;;;;;;;17.19;96.52;102362.16;5013028;28;20328;-87
2023/08/21 02:59:55;;;;;;;2.55;1.10;;;;;;;17.17;96.54;102361.38;5004629;28;20312;-87
2023/08/21 03:02:20;;;;;;;2.28;1.63;;;;;;;17.16;96.57;102357.00;4994262;28;20272;-87
2023/08/21 03:04:46;;;;;;;2.58;1.40;;;;;;;17.15;96.44;102357.94;5013198;28;20289;-87
2023/08/21 03:07:12;;;;;;;3.97;1.20;;;;;;;17.15;96.63;102360.56;4992978;28;20108;-87
2023/08/21 03:09:39;;;;;;;3.63;1.60;;;;;;;17.13;96.53;102351.84;5014357;28;20259;-87
2023/08/21 03:12:04;;;;;;;1.90;1.27;;;;;;;17.12;96.66;102352.75;4991595;28;20034;-87
2023/08/21 03:14:30;;;;;;;2.78;1.45;;;;;;;17.10;96.70;102359.91;4997539;28;20339;-87
2023/08/21 03:16:55;;;;;;;5.68;1.33;;;;;;;17.08;96.91;102350.28;4990714;28;20274;-87
2023/08/21 03:19:21;;;;;;;1.98;1.38;;;;;;;17.07;97.05;102347.69;4997789;28;20119;-86
2023/08/21 03:21:46;;;;;;;2.65;1.27;;;;;;;17.05;97.00;102350.41;4990619;28;20033;-86
2023/08/21 03:24:11;;;;;;;2.03;1.17;;;;;;;17.04;97.15;102345.16;4998359;28;20026;-86
2023/08/21 03:26:37;;;;;;;3.72;1.20;;;;;;;17.04;97.36;102351.31;5007862;28;20041;-87
2023/08/21 03:29:02;;;;;;;2.55;1.30;;;;;;;17.03;97.26;102346.97;4998167;28;20033;-87
2023/08/21 03:31:29;;;;;;;2.72;1.30;;;;;;;17.03;97.17;102354.06;4998851;28;20303;-87
2023/08/21 03:33:54;;;;;;;4.88;1.40;;;;;;;17.03;97.51;102354.06;4998299;28;20385;-87
2023/08/21 03:36:19;;;;;;;2.38;1.50;;;;;;;17.02;97.25;102349.69;5009471;28;20340;-87
2023/08/21 03:38:45;;;;;;;1.60;1.33;;;;;;;17.00;97.57;102355.03;4973445;28;20037;-87
2023/08/21 03:41:11;;;;;;;2.95;1.48;;;;;;;17.01;97.32;102355.91;4989228;28;20230;-87
2023/08/21 03:43:36;;;;;;;2.63;1.90;;;;;;;16.98;97.28;102343.66;4997698;28;20214;-87
2023/08/21 03:46:01;;;;;;;2.13;1.30;;;;;;;16.98;97.44;102350.75;5001718;28;20046;-86
2023/08/21 03:48:27;;;;;;;1.67;1.30;;;;;;;16.97;97.37;102354.31;4997144;28;20397;-87
2023/08/21 03:50:52;;;;;;;2.63;1.40;;;;;;;16.94;97.51;102352.66;5010265;28;20065;-87
2023/08/21 03:53:18;;;;;;;1.38;1.15;;;;;;;16.93;97.62;102350.94;5015002;28;20045;-87
2023/08/21 03:55:43;;;;;;;2.30;1.38;;;;;;;16.92;97.87;102358.94;4982483;28;20038;-87
2023/08/21 03:58:09;;;;;;;2.33;1.38;;;;;;;16.91;97.79;102357.22;4996911;28;20098;-86
2023/08/21 04:00:34;;;;;;;2.53;1.60;;;;;;;16.88;98.14;102351.16;4994422;28;20025;-87
2023/08/21 04:03:00;;;;;;;3.80;1.70;;;;;;;16.86;98.19;102350.34;5013295;28;20307;-86
2023/08/21 04:05:25;;;;;;;2.58;1.60;;;;;;;16.85;98.43;102353.91;5012883;28;20133;-86
2023/08/21 04:07:52;;;;;;;3.03;1.50;;;;;;;16.83;98.33;102352.28;5008808;28;20234;-87
2023/08/21 04:10:17;;;;;;;1.35;1.10;;;;;;;16.84;98.30;102359.25;4991632;28;20042;-87
2023/08/21 04:12:42;;;;;;;4.60;1.65;;;;;;;16.83;98.32;102360.22;4992853;28;20034;-87
2023/08/21 04:15:08;;;;;;;1.92;1.20;;;;;;;16.81;98.05;102357.59;4999051;28;20108;-87
2023/08/21 04:17:34;;;;;;;1.77;1.58;;;;;;;16.80;98.08;102350.56;5014766;28;20061;-87
2023/08/21 04:19:59;;;;;;;1.60;1.30;;;;;;;16.80;97.94;102355.00;5001741;28;20216;-86
2023/08/21 04:22:25;;;;;;;2.35;1.40;;;;;;;16.79;98.05;102350.63;5014760;28;20025;-87
2023/08/21 04:24:50;;;;;;;4.25;1.60;;;;;;;16.78;98.00;102354.22;5001319;28;20033;-87
2023/08/21 04:27:15;;;;;;;3.63;1.42;;;;;;;16.75;97.95;102347.25;5015993;28;20048;-87
2023/08/21 04:29:41;;;;;;;6.93;1.70;;;;;;;16.74;98.08;102353.50;5018729;28;20061;-87
2023/08/21 04:32:06;;;;;;;1.58;1.42;;;;;;;16.74;98.11;102364.06;4998284;28;20029;-86
2023/08/21 04:34:33;;;;;;;1.92;1.25;;;;;;;16.72;97.93;102357.09;5018532;28;20042;-86
2023/08/21 04:36:58;;;;;;;2.35;1.75;;;;;;;16.70;97.64;102355.41;4999494;28;20029;-87
2023/08/21 04:39:23;;;;;;;2.85;1.85;;;;;;;16.69;98.09;102358.97;4980723;28;20042;-87
2023/08/21 04:41:49;;;;;;;2.80;1.60;;;;;;;16.68;97.92;102362.53;4974938;28;20030;-87
2023/08/21 04:44:14;;;;;;;5.50;1.80;;;;;;;16.67;97.99;102365.25;5000582;28;20293;-87
2023/08/21 04:46:40;;;;;;;2.45;1.80;;;;;;;16.66;98.00;102360.88;4984425;28;20029;-87
2023/08/21 04:49:05;;;;;;;3.08;1.77;;;;;;;16.65;98.35;102365.31;5000995;28;20100;-87
2023/08/21 04:51:31;;;;;;;3.53;1.55;;;;;;;16.63;98.49;102364.53;5016769;28;20422;-87
2023/08/21 04:53:56;;;;;;;3.60;1.80;;;;;;;16.62;98.35;102361.94;5001009;28;20399;-87
2023/08/21 04:56:22;;;;;;;5.55;1.85;;;;;;;16.62;98.33;102370.72;5016944;28;20260;-87
2023/08/21 04:58:47;;;;;;;3.20;2.13;;;;;;;16.60;98.57;102375.22;5001020;28;20329;-87
2023/08/21 05:01:13;;;;;;;3.17;1.45;;;;;;;16.59;98.72;102373.53;5018723;28;20030;-87
2023/08/21 05:03:38;;;;;;;6.57;1.70;;;;;;;16.60;98.38;102366.44;4981137;28;20264;-87
2023/08/21 05:06:03;;;;;;;1.45;1.35;;;;;;;16.59;98.29;102364.69;5012591;28;20085;-87
2023/08/21 05:08:29;;;;;;;7.20;1.77;;;;;;;16.59;98.64;102370.00;4982374;28;20149;-87
2023/08/21 05:10:59;;;;;;;2.85;1.80;;;;;;;16.58;98.83;102370.94;4981280;28;20356;-87
2023/08/21 05:13:25;;;;;;;2.72;1.88;;;;;;;16.56;98.81;102371.00;4981145;28;20038;-86
2023/08/21 05:15:55;;;;;;;4.07;2.20;;;;;;;16.58;98.73;102378.88;4981440;28;20026;-87
2023/08/21 05:18:20;;;;;;;3.13;1.80;;;;;;;16.57;98.67;102372.72;4998785;28;20307;-87
2023/08/21 05:20:47;;;;;;;3.17;1.60;;;;;;;16.56;98.88;102376.28;4998887;28;20093;-86
2023/08/21 05:23:12;;;;;;;3.00;1.83;;;;;;;16.57;98.67;102378.00;4999901;28;20049;-87
2023/08/21 05:25:38;;;;;;;2.08;1.65;;;;;;;16.56;98.96;102375.44;4980651;28;20022;-86
2023/08/21 05:28:04;;;;;;;6.43;2.60;;;;;;;16.56;98.89;102380.72;4980921;28;20026;-87
2023/08/21 05:30:30;;;;;;;5.57;2.42;;;;;;;16.55;99.10;102378.97;4991608;28;20341;-86
2023/08/21 05:32:55;;;;;;;4.70;2.13;;;;;;;16.55;99.01;102384.28;5009875;28;20103;-86
2023/08/21 05:35:20;;;;;;;4.35;2.40;;;;;;;16.56;99.23;102386.00;4993720;28;20261;-86
2023/08/21 05:37:46;;;;;;;3.20;2.10;;;;;;;16.55;99.43;102379.84;4997793;28;20042;-86
2023/08/21 05:40:12;;;;;;;4.20;2.40;;;;;;;16.57;99.61;102377.13;4997692;28;20058;-86
2023/08/21 05:42:38;;;;;;;4.57;2.33;;;;;;;16.56;99.80;102381.56;4998470;28;20053;-87
2023/08/21 05:45:04;;;;;;;12.18;2.92;;;;;;;16.57;99.58;102385.06;4979743;28;20237;-87
2023/08/21 05:47:30;;;;;;;5.22;2.33;;;;;;;16.57;99.94;102385.06;4988809;28;20408;-87
2023/08/21 05:49:55;;;;;;;7.05;2.17;;;;;;;16.57;99.84;102377.13;4973324;28;20074;-86
2023/08/21 05:52:22;;;;;;;3.40;2.20;;;;;;;16.58;100.00;102379.72;4983258;28;20033;-87
2023/08/21 05:54:48;;;;;;;2.63;2.28;;;;;;;16.58;99.98;102385.00;4998089;28;20056;-87
2023/08/21 05:57:13;;;;;;;3.58;2.20;;;;;;;16.59;100.00;102385.84;4994303;28;20309;-87
2023/08/21 05:59:44;;;;;;;5.85;2.40;;;;;;;16.59;100.00;102381.44;4998065;28;20385;-87
2023/08/21 06:02:10;;;;;;;3.08;2.08;;;;;;;16.60;100.00;102380.50;5001986;28;20104;-87
2023/08/21 06:04:37;;;;;;;5.43;2.33;;;;;;;16.61;100.00;102379.59;4999323;28;20042;-86
2023/08/21 06:07:03;;;;;;;5.07;2.05;;;;;;;16.62;100.00;102383.09;4971797;28;20120;-87
2023/08/21 06:09:29;;;;;;;3.88;2.25;;;;;;;16.63;100.00;102383.03;4996759;28;20317;-87
2023/08/21 06:11:55;;;;;;;4.65;2.50;;;;;;;16.64;100.00;102384.75;4989784;28;20089;-87
2023/08/21 06:14:28;;;;;;;4.20;1.90;;;;;;;16.65;100.00;102389.13;4987519;28;20050;-87
2023/08/21 06:16:53;;;;;;;2.38;2.17;;;;;;;16.66;100.00;102392.63;4988564;28;20026;-87
2023/08/21 06:19:19;;;;;;;3.17;1.85;;;;;;;16.67;100.00;102391.69;4989042;28;20320;-86
2023/08/21 06:21:44;;;;;;;7.40;2.30;;;;;;;16.68;100.00;102385.47;4997407;28;20100;-87
2023/08/21 06:24:10;;;;;;;2.08;1.88;;;;;;;16.70;100.00;102388.94;4970624;28;20222;-87
2023/08/21 06:26:35;;;;;;;2.42;2.13;;;;;;;16.73;100.00;102390.59;4960024;28;20403;-87
2023/08/21 06:29:00;;;;;;;4.07;2.10;;;;;;;16.74;100.00;102395.81;4999256;28;20045;-87
2023/08/21 06:31:26;;;;;;;3.50;2.35;;;;;;;16.76;99.98;102395.75;4975208;28;20363;-87
2023/08/21 06:33:51;;;;;;;2.38;2.17;;;;;;;16.78;100.00;102393.91;4968942;28;20355;-87
2023/08/21 06:36:16;;;;;;;6.35;2.70;;;;;;;16.79;99.75;102395.59;4990828;28;20030;-87
2023/08/21 06:38:42;;;;;;;3.05;1.92;;;;;;;16.81;99.86;102401.72;5002411;28;20034;-87
2023/08/21 06:41:08;;;;;;;3.58;2.20;;;;;;;16.82;99.76;102398.13;4977719;28;20081;-87
2023/08/21 06:43:33;;;;;;;2.22;2.03;;;;;;;16.83;99.32;102398.09;4997754;28;20033;-87
2023/08/21 06:45:58;;;;;;;4.68;2.20;;;;;;;16.87;99.57;102406.78;4996590;28;20104;-87
2023/08/21 06:48:25;;;;;;;5.10;2.70;;;;;;;16.89;99.43;102402.28;4984534;28;20042;-86
2023/08/21 06:50:50;;;;;;;2.35;1.88;;;;;;;16.91;99.39;102403.06;4960147;28;20045;-87
2023/08/21 06:53:16;;;;;;;5.13;2.40;;;;;;;16.93;99.30;102406.50;4996539;28;20148;-87
2023/08/21 06:55:41;;;;;;;8.85;2.72;;;;;;;16.95;99.44;102404.66;4959581;28;20030;-87
2023/08/21 06:58:06;;;;;;;4.63;2.53;;;;;;;16.99;99.74;102408.03;4994264;28;20034;-87
2023/08/21 07:00:35;;;;;;;5.13;2.13;;;;;;;17.02;100.00;102399.97;4960495;28;20408;-87
2023/08/21 07:03:00;;;;;;;;;;;;;;;17.04;100.00;102409.53;4971828;28;20213;-87
2023/08/21 07:05:26;;;;;;;5.20;2.10;;;;;;;17.07;100.00;102409.41;4989834;28;19917;-87
2023/08/21 07:07:51;;;;;;;6.63;2.47;;;;;;;17.11;100.00;102406.66;4987203;28;20297;-87
2023/08/21 07:10:16;;;;;;;8.45;2.83;;;;;;;17.15;100.00;102409.06;4964648;28;20022;-87
2023/08/21 07:12:42;;;;;;;13.63;3.08;;;;;;;17.18;100.00;102406.31;4965402;28;20068;-87
2023/08/21 07:15:08;;;;;;;10.38;2.78;;;;;;;17.22;100.00;102413.19;4988289;28;20339;-87
2023/08/21 07:17:34;;;;;;;7.35;2.50;;;;;;;17.25;100.00;102407.75;4973393;28;20038;-87
2023/08/21 07:20:03;;;;;;;6.60;2.40;;;;;;;17.28;100.00;102409.41;4971187;28;20056;-87
2023/08/21 07:22:29;;;;;;;4.03;1.90;;;;;;;17.32;100.00;102416.31;4968348;28;20026;-87
2023/08/21 07:24:54;;;;;;;6.82;2.75;;;;;;;17.37;100.00;102418.72;4966962;28;20076;-87
2023/08/21 07:27:20;;;;;;;8.60;2.35;;;;;;;17.40;100.00;102422.09;4974062;28;20344;-87
2023/08/21 07:29:45;;;;;;;5.82;1.90;;;;;;;17.43;100.00;102411.38;4965371;28;20253;-87
2023/08/21 07:32:11;;;;;;;7.05;2.15;;;;;;;17.46;100.00;102413.91;4969771;28;20069;-87
2023/08/21 07:34:36;;;;;;;7.65;2.35;;;;;;;17.50;100.00;102427.88;4989151;28;20036;-87
2023/08/21 07:37:01;;;;;;;6.57;2.33;;;;;;;17.56;100.00;102424.09;4990804;28;20057;-87
2023/08/21 07:39:27;;;;;;;4.20;2.00;;;;;;;17.59;100.00;102426.56;4966669;28;20118;-87
2023/08/21 07:41:52;;;;;;;6.13;1.52;;;;;;;17.62;100.00;102429.09;4991030;28;20340;-87
2023/08/21 07:44:19;;;;;;;9.07;2.78;;;;;;;17.67;100.00;102426.25;4970747;28;20049;-87
2023/08/21 07:46:44;;;;;;;5.85;2.45;;;;;;;17.71;100.00;102427.81;4991277;28;20032;-87
2023/08/21 07:49:10;;;;;;;6.82;2.00;;;;;;;17.75;100.00;102432.91;4991703;28;20325;-87
2023/08/21 07:51:35;;;;;;;10.10;3.38;;;;;;;17.80;100.00;102427.41;4976460;28;20685;-87
2023/08/21 07:54:01;;;;;;;10.43;3.30;;;;;;;17.84;100.00;102434.28;4978030;28;20085;-87
2023/08/21 07:56:26;;;;;;;7.88;2.88;;;;;;;17.88;100.00;102440.31;4984214;28;20371;-87
2023/08/21 07:58:52;;;;;;;11.35;3.10;;;;;;;17.91;100.00;102443.69;4978646;28;20368;-87
2023/08/21 08:01:17;;;;;;;9.82;2.67;;;;;;;17.95;100.00;102447.06;4972874;28;20014;-87
2023/08/21 08:03:43;;;;;;;6.05;2.13;;;;;;;17.98;100.00;102446.94;4968725;28;20038;-87
2023/08/21 08:06:08;;;;;;;8.02;3.47;;;;;;;18.01;100.00;102434.41;4988898;28;20034;-87
2023/08/21 08:08:33;;;;;;;8.32;3.00;;;;;;;18.06;100.00;102433.31;4975913;28;20234;-87
2023/08/21 08:11:03;;;;;;;9.43;3.30;;;;;;;18.09;100.00;102435.81;4988789;28;20037;-87
2023/08/21 08:13:29;;;;;;;5.50;2.50;;;;;;;18.13;100.00;102426.78;4989104;28;20047;-87
2023/08/21 08:15:54;;;;;;;7.90;2.50;;;;;;;18.16;100.00;102437.25;4967215;28;20031;-87
2023/08/21 08:18:20;;;;;;;4.22;2.63;;;;;;;18.18;100.00;102432.72;4991819;28;20241;-87
2023/08/21 08:20:45;;;;;;;3.85;2.35;;;;;;;18.21;100.00;102437.91;4979092;28;20038;-87
2023/08/21 08:23:11;;;;;;;6.78;2.60;;;;;;;18.23;100.00;102439.53;4976623;28;20570;-87
2023/08/21 08:25:36;;;;;;;7.15;2.28;;;;;;;18.26;100.00;102435.00;4976356;28;20030;-87
2023/08/21 08:28:02;;;;;;;4.55;2.40;;;;;;;18.29;100.00;102440.19;4973128;28;20434;-87
2023/08/21 08:30:28;;;;;;;9.10;2.30;;;;;;;18.32;100.00;102442.66;4966275;28;20337;-87
2023/08/21 08:32:53;;;;;;;4.90;2.45;;;;;;;18.34;100.00;102439.03;4974785;28;20128;-87
2023/08/21 08:35:19;;;;;;;5.65;2.13;;;;;;;18.36;100.00;102434.50;4976092;28;20387;-87
2023/08/21 08:37:44;;;;;;;8.35;2.53;;;;;;;18.39;100.00;102428.19;4989972;28;20279;-87
2023/08/21 08:40:13;;;;;;;5.05;2.45;;;;;;;18.42;100.00;102428.03;4996757;28;20034;-87
2023/08/21 08:42:39;;;;;;;7.28;2.95;;;;;;;18.44;100.00;102420.00;4975018;28;20034;-87
2023/08/21 08:45:05;;;;;;;6.70;2.40;;;;;;;18.48;100.00;102422.44;4976564;28;20229;-87
2023/08/21 08:47:33;;;;;;;3.92;2.00;;;;;;;18.50;100.00;102417.94;4991962;28;20238;-87
2023/08/21 08:50:00;;;;;;;14.47;2.20;;;;;;;18.52;99.84;102425.78;4989965;28;20042;-87
2023/08/21 08:52:27;;;;;;;5.40;2.08;;;;;;;18.55;99.61;102430.94;4976715;28;20037;-87
2023/08/21 08:54:55;;;;;;;5.50;1.85;;;;;;;18.58;99.47;102428.16;4987532;28;20084;-87
2023/08/21 08:57:21;;;;;;;4.90;1.83;;;;;;;18.61;99.77;102433.31;4975370;28;20026;-87
2023/08/21 08:59:46;;;;;;;8.32;2.78;;;;;;;18.65;99.89;102431.38;4980925;28;20045;-87
2023/08/21 09:02:11;;;;;;;7.93;2.28;;;;;;;18.67;100.00;102426.84;4970787;28;20136;-87
2023/08/21 09:04:37;;;;;;;8.00;2.08;;;;;;;18.70;99.86;102434.63;4987688;28;20030;-87
2023/08/21 09:07:10;;;;;;;7.45;2.22;;;;;;;18.74;99.99;102434.41;4988161;28;20046;-87
2023/08/21 09:09:40;;;;;;;5.28;1.40;;;;;;;18.77;99.56;102436.03;4999174;28;20040;-87
2023/08/21 09:12:15;;;;;;;6.93;1.80;;;;;;;18.80;98.96;102434.09;4979322;28;20165;-87
2023/08/21 09:14:42;;;;;;;7.45;2.40;;;;;;;18.84;98.88;102433.97;5007835;28;20356;-87
2023/08/21 09:17:08;;;;;;;5.40;1.95;;;;;;;18.86;98.67;102427.66;4995952;28;20290;-87
2023/08/21 09:19:33;;;;;;;9.25;1.88;;;;;;;18.90;99.11;102429.25;4995171;28;20303;-87
2023/08/21 09:22:08;;;;;;;6.45;1.83;;;;;;;18.94;98.91;102420.16;4980563;28;20270;-87
2023/08/21 09:24:33;;;;;;;4.72;1.80;;;;;;;18.96;98.46;102428.91;4986359;28;20244;-87
2023/08/21 09:27:01;;;;;;;3.53;1.50;;;;;;;18.99;98.60;102431.41;4987855;28;20101;-87
2023/08/21 09:29:27;;;;;;;5.80;1.30;;;;;;;19.05;98.56;102432.06;4998821;28;20348;-87
2023/08/21 09:31:56;;;;;;;9.20;1.92;;;;;;;19.08;98.09;102429.22;4987051;28;20077;-87
2023/08/21 09:34:21;;;;;;;6.65;2.42;;;;;;;19.12;97.80;102428.16;5006945;28;20362;-87
2023/08/21 09:36:54;;;;;;;4.15;1.95;;;;;;;19.15;97.65;102425.31;4973489;28;20558;-87
2023/08/21 09:39:20;;;;;;;4.50;1.58;;;;;;;19.19;97.81;102418.88;4981123;28;20329;-87
2023/08/21 09:41:56;;;;;;;4.93;1.30;;;;;;;19.24;97.74;102426.63;4972790;28;20026;-87
2023/08/21 09:44:21;;;;;;;3.70;1.40;;;;;;;19.27;97.15;102429.13;4984619;28;20068;-87
2023/08/21 09:46:50;;;;;;;7.40;1.80;;;;;;;19.29;96.97;102416.63;4993302;28;20059;-87
2023/08/21 09:49:17;;;;;;;5.60;1.40;;;;;;;19.30;96.46;102416.56;4981351;28;20060;-87
2023/08/21 09:51:44;;;;;;;2.08;1.30;;;;;;;19.34;96.24;102414.59;4996295;28;20062;-87
2023/08/21 09:54:11;;;;;;;5.07;1.55;;;;;;;19.36;96.01;102418.03;4982606;28;20497;-87
2023/08/21 09:56:37;;;;;;;6.53;1.83;;;;;;;19.40;95.86;102416.91;4972074;28;20042;-87
2023/08/21 09:59:03;;;;;;;2.72;1.30;;;;;;;19.42;95.25;102419.50;4977744;28;20026;-87
2023/08/21 10:01:32;;;;;;;3.55;1.23;;;;;;;19.44;94.96;102414.94;4975838;28;20038;-87
2023/08/21 10:04:02;;;;;;;3.78;1.55;;;;;;;19.46;94.78;102416.56;4976080;28;20176;-87
2023/08/21 10:06:29;;;;;;;3.30;1.65;;;;;;;19.48;94.17;102414.72;4979992;28;20066;-87
2023/08/21 10:08:56;;;;;;;4.80;1.70;;;;;;;19.51;93.94;102414.53;4979250;28;20050;-87
2023/08/21 10:11:23;;;;;;;3.17;1.20;;;;;;;19.52;93.27;102418.06;4976626;28;20038;-87
2023/08/21 10:13:50;;;;;;;5.18;1.52;;;;;;;19.54;92.87;102424.16;4973764;28;20241;-87
2023/08/21 10:16:17;;;;;;;6.33;1.30;;;;;;;19.56;92.70;102423.13;4984342;28;20019;-87
2023/08/21 10:18:45;;;;;;;1.50;1.00;;;;;;;19.59;92.87;102419.44;4994751;28;20550;-87
2023/08/21 10:21:15;;;;;;;;;;;;;;;19.62;92.71;102429.91;4979759;28;20343;-87
2023/08/21 10:23:41;;;;;;;7.18;2.40;;;;;;;19.65;92.63;102420.94;4971513;28;19925;-87
2023/08/21 10:26:09;;;;;;;5.70;1.92;;;;;;;19.67;92.61;102419.88;4982107;28;20045;-87
2023/08/21 10:28:42;;;;;;;3.55;1.80;;;;;;;19.70;92.92;102411.75;4993311;28;20360;-87
2023/08/21 10:31:29;;;;;;;4.18;1.63;;;;;;;19.75;93.08;102411.53;4965611;28;20034;-87
2023/08/21 10:33:56;;;;;;;5.70;2.15;;;;;;;19.78;92.81;102411.38;4982478;28;20030;-87
2023/08/21 10:36:42;;;;;;;4.10;1.83;;;;;;;19.82;92.39;102409.41;5000546;28;20332;-87
2023/08/21 10:39:25;;;;;;;4.22;1.52;;;;;;;19.84;92.44;102415.50;4970008;28;20248;-91
2023/08/21 10:41:55;;;;;;;3.20;1.88;;;;;;;19.85;92.21;102411.91;4986753;28;20031;-88
2023/08/21 10:44:37;;;;;;;2.72;1.73;;;;;;;19.86;91.86;102417.09;4979813;28;20313;-88
2023/08/21 10:47:22;;;;;;;4.30;1.83;;;;;;;19.87;91.47;102412.66;4974288;28;20022;-88
2023/08/21 10:50:05;;;;;;;4.78;1.70;;;;;;;19.89;91.45;102414.28;4979115;28;20038;-88
2023/08/21 10:52:36;;;;;;;4.25;1.60;;;;;;;19.93;90.94;102412.31;4993632;28;20034;-87
2023/08/21 10:55:05;;;;;;;4.78;1.80;;;;;;;19.94;91.08;102406.91;4984184;28;20268;-87
2023/08/21 10:57:32;;;;;;;4.32;1.85;;;;;;;19.96;91.07;102408.66;4972306;28;20030;-88
2023/08/21 10:59:59;;;;;;;2.90;1.63;;;;;;;19.99;90.82;102397.81;4980882;28;20045;-88
2023/08/21 11:02:28;;;;;;;2.73;1.17;;;;;;;20.02;90.33;102398.50;4995560;28;20141;-88
2023/08/21 11:04:54;;;;;;;2.58;1.40;;;;;;;20.07;89.98;102400.94;5000265;28;20532;-88
2023/08/21 11:07:20;;;;;;;2.47;1.38;;;;;;;20.09;90.33;102399.03;4975351;28;20049;-88
2023/08/21 11:09:47;;;;;;;4.78;1.35;;;;;;;20.12;89.94;102407.69;4990839;28;20049;-87
2023/08/21 11:12:18;;;;;;;4.20;1.63;;;;;;;20.14;89.72;102410.28;4969193;28;20119;-88
2023/08/21 11:14:43;;;;;;;2.15;1.20;;;;;;;20.17;89.87;102414.56;4989606;28;20146;-88
2023/08/21 11:17:09;;;;;;;2.53;1.20;;;;;;;20.19;89.26;102410.84;4988638;28;20362;-88
2023/08/21 11:19:36;;;;;;;3.80;1.30;;;;;;;20.21;89.04;102411.66;4971271;28;20208;-88
2023/08/21 11:22:06;;;;;;;2.45;1.60;;;;;;;20.23;88.43;102403.56;4971441;28;20022;-88